createdAt,value
2022-10-30T00:00:43.115Z,13.14
2022-10-30T00:03:15.890Z,13.16
2022-10-30T00:05:43.980Z,13.15
2022-10-30T00:08:13.352Z,13.34
2022-10-30T00:10:40.967Z,13.42
2022-10-30T00:13:08.373Z,13.26
2022-10-30T00:15:34.964Z,13.52
2022-10-30T00:18:01.763Z,13.17
2022-10-30T00:20:28.452Z,13.38
2022-10-30T00:22:55.118Z,13.52
2022-10-30T00:25:21.655Z,13.45
2022-10-30T00:27:48.061Z,13.32
2022-10-30T00:30:15.452Z,13.42
2022-10-30T00:32:42.889Z,12.98
2022-10-30T00:35:10.318Z,13.29
2022-10-30T00:37:40.469Z,13.49
2022-10-30T00:40:07.466Z,13.27
2022-10-30T00:42:34.286Z,13.12
2022-10-30T00:45:00.682Z,13.43
2022-10-30T00:47:32.522Z,13.52
2022-10-30T00:50:13.651Z,13.34
2022-10-30T00:53:02.370Z,13.60
2022-10-30T00:55:35.171Z,13.37
2022-10-30T00:58:07.736Z,13.33
2022-10-30T01:00:36.787Z,13.14
2022-10-30T01:03:03.950Z,13.16
2022-10-30T01:05:33.564Z,13.23
2022-10-30T01:08:00.650Z,13.05
2022-10-30T01:10:27.267Z,12.98
2022-10-30T01:12:55.479Z,12.83
2022-10-30T01:15:30.401Z,13.05
2022-10-30T01:18:12.974Z,13.20
2022-10-30T01:21:09.095Z,13.04
2022-10-30T01:23:41.122Z,13.10
2022-10-30T01:26:15.425Z,12.88
2022-10-30T01:29:06.695Z,12.88
2022-10-30T01:31:38.762Z,12.85
2022-10-30T01:34:36.154Z,12.80
2022-10-30T01:37:22.851Z,12.89
2022-10-30T01:39:49.242Z,12.95
2022-10-30T01:42:44.721Z,13.18
2022-10-30T01:45:48.027Z,12.79
2022-10-30T01:49:02.701Z,12.87
2022-10-30T01:51:50.270Z,12.99
2022-10-30T01:54:19.308Z,13.20
2022-10-30T01:57:06.901Z,13.24
2022-10-30T01:59:40.178Z,13.14
2022-10-30T02:02:07.454Z,13.11
2022-10-30T02:04:34.335Z,13.19
2022-10-30T02:07:00.937Z,13.17
2022-10-30T02:09:27.742Z,13.21
2022-10-30T02:11:55.306Z,13.15
2022-10-30T02:14:26.606Z,13.40
2022-10-30T02:16:56.692Z,13.42
2022-10-30T02:19:23.485Z,13.46
2022-10-30T02:21:51.021Z,13.52
2022-10-30T02:24:17.374Z,13.32
2022-10-30T02:26:43.699Z,13.42
2022-10-30T02:29:10.067Z,13.42
2022-10-30T02:31:37.860Z,13.48
2022-10-30T02:34:04.580Z,13.44
2022-10-30T02:36:30.927Z,13.29
2022-10-30T02:38:57.732Z,13.30
2022-10-30T02:41:24.590Z,13.10
2022-10-30T02:43:53.308Z,13.00
2022-10-30T02:46:19.743Z,13.24
2022-10-30T02:48:46.381Z,13.25
2022-10-30T02:51:12.730Z,13.14
2022-10-30T02:53:39.087Z,13.07
2022-10-30T02:56:07.650Z,13.00
2022-10-30T02:58:35.004Z,13.21
2022-10-30T03:01:09.645Z,13.11
2022-10-30T03:03:36.386Z,13.02
2022-10-30T03:06:04.592Z,13.11
2022-10-30T03:08:31.543Z,13.09
2022-10-30T03:11:18.210Z,13.17
2022-10-30T03:13:46.328Z,13.29
2022-10-30T03:16:23.914Z,13.11
2022-10-30T03:18:56.042Z,13.17
2022-10-30T03:21:24.499Z,13.24
2022-10-30T03:23:51.706Z,13.17
2022-10-30T03:26:18.972Z,13.04
2022-10-30T03:28:45.417Z,12.67
2022-10-30T03:31:14.310Z,12.54
2022-10-30T03:33:41.050Z,12.70
2022-10-30T03:36:09.452Z,12.86
2022-10-30T03:38:36.343Z,12.62
2022-10-30T03:41:03.269Z,12.80
2022-10-30T03:43:29.770Z,12.92
2022-10-30T03:45:56.881Z,12.62
2022-10-30T03:48:25.728Z,12.92
2022-10-30T03:50:53.702Z,12.84
2022-10-30T03:53:23.423Z,12.79
2022-10-30T03:55:50.470Z,13.01
2022-10-30T03:58:16.859Z,12.64
2022-10-30T04:00:43.265Z,12.61
2022-10-30T04:03:10.192Z,12.61
2022-10-30T04:05:37.559Z,12.43
2022-10-30T04:08:10.842Z,12.56
2022-10-30T04:10:37.274Z,12.62
2022-10-30T04:13:07.273Z,12.56
2022-10-30T04:15:34.266Z,12.46
2022-10-30T04:18:00.959Z,12.60
2022-10-30T04:20:28.111Z,12.53
2022-10-30T04:23:02.210Z,12.57
2022-10-30T04:25:29.199Z,12.46
2022-10-30T04:27:59.333Z,12.74
2022-10-30T04:30:27.161Z,12.42
2022-10-30T04:32:58.284Z,12.40
2022-10-30T04:35:28.833Z,12.48
2022-10-30T04:37:58.448Z,12.38
2022-10-30T04:40:27.966Z,12.54
2022-10-30T04:42:54.383Z,12.68
2022-10-30T04:45:20.904Z,12.83
2022-10-30T04:47:47.493Z,12.96
2022-10-30T04:50:14.602Z,12.86
2022-10-30T04:52:41.499Z,12.92
2022-10-30T04:55:09.261Z,12.92
2022-10-30T04:57:36.865Z,12.83
2022-10-30T05:00:08.401Z,12.63
2022-10-30T05:02:36.906Z,12.50
2022-10-30T05:05:04.570Z,12.47
2022-10-30T05:07:30.902Z,12.60
2022-10-30T05:09:57.645Z,12.60
2022-10-30T05:12:24.008Z,12.55
2022-10-30T05:14:50.381Z,12.28
2022-10-30T05:17:16.737Z,12.36
2022-10-30T05:19:43.127Z,12.43
2022-10-30T05:22:10.318Z,12.09
2022-10-30T05:24:36.672Z,12.12
2022-10-30T05:27:03.006Z,12.20
2022-10-30T05:29:29.757Z,12.09
2022-10-30T05:31:56.081Z,12.27
2022-10-30T05:34:22.487Z,12.32
2022-10-30T05:36:48.842Z,12.39
2022-10-30T05:39:15.209Z,12.13
2022-10-30T05:41:41.535Z,12.05
2022-10-30T05:44:07.898Z,11.85
2022-10-30T05:46:34.246Z,11.95
2022-10-30T05:49:00.989Z,12.04
2022-10-30T05:51:27.314Z,11.92
2022-10-30T05:53:53.701Z,11.82
2022-10-30T05:56:20.031Z,11.89
2022-10-30T05:58:49.445Z,11.57
2022-10-30T06:01:15.958Z,11.46
2022-10-30T06:03:43.495Z,11.47
2022-10-30T06:06:09.835Z,11.51
2022-10-30T06:08:39.904Z,11.53
2022-10-30T06:11:06.244Z,11.73
2022-10-30T06:13:32.688Z,11.46
2022-10-30T06:15:59.004Z,11.30
2022-10-30T06:18:25.766Z,11.35
2022-10-30T06:20:52.103Z,11.05
2022-10-30T06:23:18.446Z,11.20
2022-10-30T06:25:44.776Z,11.29
2022-10-30T06:28:11.574Z,11.21
2022-10-30T06:30:38.002Z,11.37
2022-10-30T06:33:05.110Z,11.34
2022-10-30T06:35:32.141Z,11.41
2022-10-30T06:38:00.611Z,11.23
2022-10-30T06:40:29.796Z,11.49
2022-10-30T06:42:57.376Z,11.88
2022-10-30T06:45:24.941Z,11.72
2022-10-30T06:47:52.169Z,11.81
2022-10-30T06:50:20.582Z,11.87
2022-10-30T06:52:47.412Z,11.99
2022-10-30T06:55:13.756Z,11.88
2022-10-30T06:57:41.217Z,11.91
2022-10-30T07:00:08.441Z,11.86
2022-10-30T07:02:34.976Z,11.64
2022-10-30T07:05:01.486Z,11.85
2022-10-30T07:07:27.810Z,12.01
2022-10-30T07:09:54.206Z,11.63
2022-10-30T07:12:20.526Z,12.06
2022-10-30T07:14:50.192Z,11.86
2022-10-30T07:17:16.534Z,12.13
2022-10-30T07:19:42.907Z,12.13
2022-10-30T07:22:09.234Z,12.15
2022-10-30T07:24:36.001Z,12.44
2022-10-30T07:27:02.333Z,12.48
2022-10-30T07:29:28.695Z,12.50
2022-10-30T07:32:03.065Z,12.51
2022-10-30T07:34:30.465Z,12.59
2022-10-30T07:36:56.797Z,12.83
2022-10-30T07:39:23.563Z,12.65
2022-10-30T07:41:52.774Z,12.82
2022-10-30T07:44:19.150Z,12.84
2022-10-30T07:46:45.487Z,12.98
2022-10-30T07:49:15.602Z,12.84
2022-10-30T07:51:41.949Z,13.00
2022-10-30T07:54:08.340Z,12.93
2022-10-30T07:56:34.670Z,12.81
2022-10-30T07:59:01.025Z,12.96
2022-10-30T08:01:27.478Z,13.00
2022-10-30T08:03:53.902Z,12.90
2022-10-30T08:06:23.116Z,13.02
2022-10-30T08:08:53.219Z,12.97
2022-10-30T08:11:19.543Z,13.08
2022-10-30T08:13:45.914Z,13.02
2022-10-30T08:16:12.850Z,12.95
2022-10-30T08:18:42.065Z,13.00
2022-10-30T08:21:08.689Z,13.03
2022-10-30T08:23:38.736Z,13.11
2022-10-30T08:26:05.430Z,13.13
2022-10-30T08:28:33.047Z,13.09
2022-10-30T08:31:00.998Z,13.11
2022-10-30T08:33:27.477Z,13.18
2022-10-30T08:35:56.721Z,13.27
2022-10-30T08:38:23.806Z,13.30
2022-10-30T08:40:50.155Z,13.42
2022-10-30T08:43:16.661Z,13.37
2022-10-30T08:45:43.125Z,13.42
2022-10-30T08:48:15.929Z,13.49
2022-10-30T08:50:42.814Z,13.52
2022-10-30T08:53:14.653Z,13.56
2022-10-30T08:55:41.605Z,13.60
2022-10-30T08:58:11.283Z,13.65
2022-10-30T09:00:38.050Z,13.66
2022-10-30T09:03:04.831Z,13.78
2022-10-30T09:05:31.418Z,13.71
2022-10-30T09:07:59.178Z,13.78
2022-10-30T09:10:26.848Z,13.83
2022-10-30T09:12:58.586Z,13.92
2022-10-30T09:15:26.113Z,14.04
2022-10-30T09:18:03.329Z,14.09
2022-10-30T09:20:30.801Z,14.11
2022-10-30T09:22:57.825Z,14.25
2022-10-30T09:25:24.491Z,14.32
2022-10-30T09:27:50.892Z,14.35
2022-10-30T09:30:17.283Z,14.46
2022-10-30T09:32:43.945Z,14.64
2022-10-30T09:35:10.394Z,14.61
2022-10-30T09:37:38.056Z,14.74
2022-10-30T09:40:07.123Z,14.77
2022-10-30T09:42:42.601Z,14.87
2022-10-30T09:45:42.738Z,14.95
2022-10-30T09:48:37.518Z,14.93
2022-10-30T09:51:30.448Z,15.04
2022-10-30T09:54:20.000Z,15.07
2022-10-30T09:57:15.382Z,15.21
2022-10-30T09:59:47.581Z,15.18
2022-10-30T10:02:37.410Z,15.26
2022-10-30T10:05:13.764Z,15.37
2022-10-30T10:07:45.515Z,15.48
2022-10-30T10:10:24.837Z,15.55
2022-10-30T10:12:57.233Z,15.55
2022-10-30T10:15:40.408Z,15.62
2022-10-30T10:18:17.848Z,15.61
2022-10-30T10:20:50.062Z,15.80
2022-10-30T10:23:30.494Z,15.77
2022-10-30T10:26:00.585Z,15.80
2022-10-30T10:28:49.421Z,15.84
2022-10-30T10:31:49.777Z,15.90
2022-10-30T10:34:35.573Z,15.88
2022-10-30T10:37:16.983Z,15.94
2022-10-30T10:40:03.868Z,15.94
2022-10-30T10:42:52.670Z,16.02
2022-10-30T10:45:51.239Z,16.14
2022-10-30T10:48:32.931Z,16.21
2022-10-30T10:51:06.603Z,16.37
2022-10-30T10:53:40.710Z,16.36
2022-10-30T10:56:07.843Z,16.28
2022-10-30T10:58:43.556Z,16.43
2022-10-30T11:01:17.853Z,16.48
2022-10-30T11:04:02.830Z,16.56
2022-10-30T11:06:35.391Z,16.62
2022-10-30T11:09:16.477Z,16.74
2022-10-30T11:11:44.522Z,16.50
2022-10-30T11:14:29.371Z,16.67
2022-10-30T11:17:21.505Z,16.75
2022-10-30T11:19:58.211Z,16.98
2022-10-30T11:22:31.535Z,17.07
2022-10-30T11:25:19.233Z,17.25
2022-10-30T11:27:53.765Z,17.36
2022-10-30T11:30:23.773Z,17.48
2022-10-30T11:32:51.450Z,17.56
2022-10-30T11:35:20.451Z,17.70
2022-10-30T11:37:49.536Z,17.57
2022-10-30T11:40:19.812Z,17.67
2022-10-30T11:42:59.908Z,17.83
2022-10-30T11:45:30.167Z,18.06
2022-10-30T11:48:02.481Z,18.11
2022-10-30T11:50:31.865Z,18.18
2022-10-30T11:53:03.856Z,18.15
2022-10-30T11:55:36.204Z,18.34
2022-10-30T11:58:03.101Z,18.50
2022-10-30T12:00:32.841Z,18.40
2022-10-30T12:03:01.079Z,18.57
2022-10-30T12:05:37.738Z,18.65
2022-10-30T12:08:17.470Z,18.81
2022-10-30T12:10:56.834Z,19.12
2022-10-30T12:13:24.861Z,19.28
2022-10-30T12:16:06.040Z,19.43
2022-10-30T12:18:33.575Z,19.51
2022-10-30T12:21:00.828Z,19.70
2022-10-30T12:23:29.044Z,19.55
2022-10-30T12:25:59.789Z,19.38
2022-10-30T12:28:31.582Z,19.54
2022-10-30T12:31:12.356Z,19.71
2022-10-30T12:34:03.924Z,19.48
2022-10-30T12:36:37.417Z,19.50
2022-10-30T12:39:13.055Z,19.54
2022-10-30T12:42:07.522Z,19.57
2022-10-30T12:44:41.148Z,19.40
2022-10-30T12:47:38.997Z,19.46
2022-10-30T12:50:20.154Z,19.06
2022-10-30T12:52:54.467Z,19.22
2022-10-30T12:55:27.376Z,19.22
2022-10-30T12:58:08.916Z,19.26
2022-10-30T13:00:51.407Z,19.08
2022-10-30T13:03:37.236Z,19.00
2022-10-30T13:06:14.235Z,19.37
2022-10-30T13:09:05.996Z,19.38
2022-10-30T13:11:55.502Z,19.37
2022-10-30T13:14:38.734Z,19.45
2022-10-30T13:17:11.613Z,19.40
2022-10-30T13:19:44.353Z,19.35
2022-10-30T13:22:30.892Z,19.18
2022-10-30T13:25:34.558Z,19.16
2022-10-30T13:28:25.670Z,19.15
2022-10-30T13:31:03.238Z,18.63
2022-10-30T13:33:47.927Z,18.48
2022-10-30T13:36:26.895Z,18.98
2022-10-30T13:39:03.567Z,18.54
2022-10-30T13:41:45.393Z,17.64
2022-10-30T13:44:30.547Z,17.85
2022-10-30T13:47:13.261Z,18.45
2022-10-30T13:50:11.562Z,18.42
2022-10-30T13:52:42.117Z,18.33
2022-10-30T13:55:22.655Z,18.41
2022-10-30T13:58:04.149Z,18.55
2022-10-30T14:00:55.895Z,18.65
2022-10-30T14:03:37.369Z,18.49
2022-10-30T14:06:24.202Z,18.72
2022-10-30T14:09:05.855Z,18.57
2022-10-30T14:11:32.189Z,18.56
2022-10-30T14:14:05.082Z,18.54
2022-10-30T14:16:37.300Z,18.59
2022-10-30T14:19:06.159Z,18.48
2022-10-30T14:21:53.406Z,18.47
2022-10-30T14:24:22.632Z,18.41
2022-10-30T14:27:11.075Z,18.36
2022-10-30T14:29:46.787Z,18.40
2022-10-30T14:32:13.069Z,18.30
2022-10-30T14:34:52.342Z,17.56
2022-10-30T14:37:38.573Z,17.19
2022-10-30T14:40:31.967Z,17.15
2022-10-30T14:43:09.161Z,17.00
2022-10-30T14:45:54.466Z,17.33
2022-10-30T14:48:50.023Z,17.01
2022-10-30T14:51:22.736Z,16.70
2022-10-30T14:54:06.437Z,16.47
2022-10-30T14:56:45.106Z,16.58
2022-10-30T14:59:14.148Z,16.46
2022-10-30T15:01:48.323Z,16.39
2022-10-30T15:04:30.052Z,16.28
2022-10-30T15:07:05.371Z,16.16
2022-10-30T15:09:48.985Z,16.10
2022-10-30T15:12:29.888Z,15.92
2022-10-30T15:15:03.415Z,15.95
2022-10-30T15:17:34.111Z,15.99
2022-10-30T15:20:04.726Z,15.65
2022-10-30T15:22:32.935Z,15.68
2022-10-30T15:25:00.826Z,15.66
2022-10-30T15:27:27.822Z,15.42
2022-10-30T15:29:58.561Z,15.63
2022-10-30T15:32:25.243Z,15.60
2022-10-30T15:35:00.828Z,15.48
2022-10-30T15:37:27.813Z,15.32
2022-10-30T15:40:10.139Z,15.27
2022-10-30T15:42:38.331Z,15.23
2022-10-30T15:45:05.179Z,15.00
2022-10-30T15:47:31.543Z,15.00
2022-10-30T15:49:59.158Z,14.83
2022-10-30T15:52:28.541Z,14.93
2022-10-30T15:55:01.188Z,14.95
2022-10-30T15:58:05.056Z,14.74
2022-10-30T16:00:35.139Z,14.67
2022-10-30T16:03:15.912Z,14.65
2022-10-30T16:05:42.323Z,14.48
2022-10-30T16:08:19.384Z,14.31
2022-10-30T16:10:47.213Z,14.23
2022-10-30T16:13:18.886Z,14.11
2022-10-30T16:15:47.492Z,14.02
2022-10-30T16:18:21.065Z,13.99
2022-10-30T16:20:57.406Z,13.97
2022-10-30T16:23:24.674Z,14.11
2022-10-30T16:25:56.228Z,14.13
2022-10-30T16:28:30.096Z,13.94
2022-10-30T16:31:05.631Z,14.08
2022-10-30T16:33:35.109Z,13.98
2022-10-30T16:36:04.357Z,13.75
2022-10-30T16:38:36.818Z,13.76
2022-10-30T16:41:07.860Z,13.72
2022-10-30T16:43:35.444Z,13.64
2022-10-30T16:46:14.307Z,13.99
2022-10-30T16:48:48.315Z,13.70
2022-10-30T16:51:17.508Z,13.45
2022-10-30T16:53:48.537Z,13.35
2022-10-30T16:56:27.513Z,13.66
2022-10-30T16:58:57.549Z,13.66
2022-10-30T17:01:27.508Z,13.30
2022-10-30T17:03:55.566Z,13.40
2022-10-30T17:06:31.387Z,13.27
2022-10-30T17:08:59.831Z,13.46
2022-10-30T17:12:11.141Z,13.24
2022-10-30T17:14:47.948Z,13.42
2022-10-30T17:17:30.495Z,13.22
2022-10-30T17:20:02.209Z,13.05
2022-10-30T17:22:29.219Z,12.96
2022-10-30T17:24:56.351Z,13.18
2022-10-30T17:27:47.654Z,13.03
2022-10-30T17:30:29.417Z,12.81
2022-10-30T17:32:55.978Z,12.84
2022-10-30T17:35:22.479Z,12.87
2022-10-30T17:37:48.812Z,12.89
2022-10-30T17:40:15.463Z,12.82
2022-10-30T17:42:41.852Z,12.84
2022-10-30T17:45:13.714Z,13.12
2022-10-30T17:47:40.237Z,13.14
2022-10-30T17:50:07.123Z,13.16
2022-10-30T17:52:34.294Z,13.09
2022-10-30T17:55:02.207Z,12.96
2022-10-30T17:57:28.759Z,13.03
2022-10-30T17:59:55.502Z,12.83
2022-10-30T18:02:23.059Z,13.04
2022-10-30T18:04:50.162Z,13.00
2022-10-30T18:07:17.080Z,12.66
2022-10-30T18:09:44.292Z,12.49
2022-10-30T18:12:14.890Z,12.78
2022-10-30T18:14:43.097Z,13.33
2022-10-30T18:17:10.153Z,13.30
2022-10-30T18:19:39.813Z,13.04
2022-10-30T18:22:06.157Z,12.58
2022-10-30T18:24:32.551Z,12.69
2022-10-30T18:26:59.120Z,12.60
2022-10-30T18:29:26.091Z,12.42
2022-10-30T18:31:52.462Z,12.43
2022-10-30T18:34:21.390Z,12.71
2022-10-30T18:36:48.722Z,12.50
2022-10-30T18:39:15.569Z,12.49
2022-10-30T18:41:44.208Z,12.43
2022-10-30T18:44:14.710Z,12.38
2022-10-30T18:46:41.335Z,12.57
2022-10-30T18:49:08.158Z,12.55
2022-10-30T18:51:34.630Z,12.49
2022-10-30T18:54:01.130Z,12.42
2022-10-30T18:56:29.918Z,12.23
2022-10-30T18:59:00.701Z,12.29
2022-10-30T19:01:28.924Z,12.29
2022-10-30T19:03:55.423Z,12.07
2022-10-30T19:06:24.564Z,11.94
2022-10-30T19:08:51.258Z,12.12
2022-10-30T19:11:24.182Z,11.93
2022-10-30T19:13:52.116Z,12.01
2022-10-30T19:16:19.982Z,12.01
2022-10-30T19:18:47.448Z,12.00
2022-10-30T19:21:20.152Z,12.02
2022-10-30T19:23:47.024Z,12.53
2022-10-30T19:26:14.476Z,12.21
2022-10-30T19:28:41.375Z,11.91
2022-10-30T19:31:07.795Z,11.93
2022-10-30T19:33:34.167Z,11.88
2022-10-30T19:36:07.301Z,11.94
2022-10-30T19:38:33.739Z,11.98
2022-10-30T19:41:00.397Z,11.78
2022-10-30T19:43:26.900Z,11.70
2022-10-30T19:45:55.688Z,11.71
2022-10-30T19:51:11.540Z,12.39
2022-10-30T19:53:39.267Z,11.90
2022-10-30T19:56:06.029Z,11.83
2022-10-30T19:58:32.354Z,12.11
2022-10-30T20:00:58.809Z,11.61
2022-10-30T20:03:25.204Z,11.88
2022-10-30T20:05:51.581Z,12.39
2022-10-30T20:08:20.187Z,11.82
2022-10-30T20:10:52.195Z,11.78
2022-10-30T20:13:18.775Z,11.81
2022-10-30T20:15:45.138Z,11.63
2022-10-30T20:18:17.868Z,11.53
2022-10-30T20:20:47.647Z,11.52
2022-10-30T20:23:13.981Z,11.39
2022-10-30T20:25:40.804Z,11.36
2022-10-30T20:28:36.144Z,11.44
2022-10-30T20:31:02.671Z,11.42
2022-10-30T20:33:29.321Z,11.51
2022-10-30T20:35:59.724Z,11.56
2022-10-30T20:38:31.510Z,11.75
2022-10-30T20:40:59.907Z,11.50
2022-10-30T20:43:38.382Z,11.15
2022-10-30T20:46:06.539Z,11.16
2022-10-30T20:48:33.121Z,11.32
2022-10-30T20:51:01.509Z,11.69
2022-10-30T20:53:28.743Z,11.80
2022-10-30T20:55:55.234Z,11.20
2022-10-30T20:58:21.917Z,11.16
2022-10-30T21:00:48.788Z,11.09
2022-10-30T21:03:15.357Z,11.12
2022-10-30T21:05:45.436Z,11.43
2022-10-30T21:08:13.888Z,11.05
2022-10-30T21:10:41.512Z,11.22
2022-10-30T21:13:09.964Z,10.96
2022-10-30T21:15:44.410Z,10.98
2022-10-30T21:18:13.002Z,11.04
2022-10-30T21:20:40.808Z,10.98
2022-10-30T21:23:07.562Z,11.25
2022-10-30T21:25:33.946Z,11.09
2022-10-30T21:28:00.532Z,10.97
2022-10-30T21:30:27.362Z,10.94
2022-10-30T21:32:53.878Z,10.84
2022-10-30T21:35:20.246Z,11.00
2022-10-30T21:37:46.785Z,11.02
2022-10-30T21:40:14.199Z,11.12
2022-10-30T21:42:40.566Z,10.90
2022-10-30T21:45:07.653Z,10.96
2022-10-30T21:47:34.016Z,10.94
2022-10-30T21:50:00.409Z,10.96
2022-10-30T21:52:26.786Z,11.02
2022-10-30T21:54:53.154Z,11.03
2022-10-30T21:57:19.474Z,11.21
2022-10-30T21:59:45.888Z,11.18
2022-10-30T22:02:14.423Z,11.26
2022-10-30T22:04:40.865Z,11.44
2022-10-30T22:07:07.343Z,11.68
2022-10-30T22:09:33.933Z,11.54
2022-10-30T22:12:00.295Z,11.34
2022-10-30T22:14:27.186Z,10.89
2022-10-30T22:16:53.514Z,11.00
2022-10-30T22:19:20.257Z,10.95
2022-10-30T22:21:46.574Z,11.17
2022-10-30T22:24:13.679Z,11.29
2022-10-30T22:26:40.018Z,11.00
2022-10-30T22:29:06.442Z,11.18
2022-10-30T22:31:32.771Z,11.10
2022-10-30T22:34:00.498Z,11.57
2022-10-30T22:36:29.243Z,10.84
2022-10-30T22:38:59.865Z,11.35
2022-10-30T22:41:28.736Z,11.21
2022-10-30T22:43:59.195Z,10.88
2022-10-30T22:46:28.705Z,10.89
2022-10-30T22:48:56.106Z,10.89
2022-10-30T22:51:22.869Z,11.07
2022-10-30T22:53:56.497Z,11.32
2022-10-30T22:56:25.569Z,11.38
2022-10-30T22:58:52.754Z,11.22
2022-10-30T23:01:25.196Z,11.01
2022-10-30T23:03:53.097Z,11.46
2022-10-30T23:06:19.965Z,11.07
2022-10-30T23:08:46.661Z,11.41
2022-10-30T23:11:13.700Z,11.50
2022-10-30T23:13:41.066Z,11.13
2022-10-30T23:16:09.310Z,11.54
2022-10-30T23:18:35.673Z,10.90
2022-10-30T23:21:05.288Z,10.82
2022-10-30T23:23:36.368Z,10.82
2022-10-30T23:26:08.749Z,10.97
2022-10-30T23:28:35.693Z,11.10
2022-10-30T23:31:09.882Z,10.79
2022-10-30T23:33:36.315Z,10.92
2022-10-30T23:36:03.969Z,10.86
2022-10-30T23:38:30.482Z,10.79
2022-10-30T23:40:56.812Z,10.89
2022-10-30T23:43:23.187Z,10.82
2022-10-30T23:45:49.502Z,10.97
2022-10-30T23:48:15.856Z,11.33
2022-10-30T23:50:42.182Z,11.17
2022-10-30T23:53:08.558Z,10.96
2022-10-30T23:55:34.899Z,11.09
2022-10-30T23:58:01.628Z,11.07
